Startpagina
METAR-TAF:

METAR-TAF

Vliegvelden :

Ndjamena, Tsjaad

breedte: 12-08N, lengte: 015-02E, hoogte: 295 m

Actueel weer

Dit bericht is 23 minuten geleden gemaakt, om 21:00 UTC
Wind 3 kt uit variabele richting
Temperatuur 25°C
Vochtigheid 89%
Druk 1013 hPa
Zicht 10 km of meer
Weinig wolken op 3000 ft
Weinig wolken op 5000 ft, Cumulonimbus.
onweer

METAR: FTTJ 212100Z VRB03KT 9999 TS FEW030 FEW050CB 25/23 Q1013 NOSIG

Tijdstip: 22:23 (21:23 UTC)

Verwachting

Dit bericht is 3 uur en het 47 minuten geleden gemaakt, om 17:36 UTC
Verwachting geldig van 21 om 18 UTC tot 22 om 24 UTC
Wind 6 kt uit het zuidzuidwesten
Zicht 10 km of meer
Weinig wolken op 3000 ft
Weinig wolken op 5000 ft, Cumulonimbus.
onweer
Wijzigt naar
van 21 om 21 UTC tot 21 om 23 UTC
Tijdelijke
van 22 om 12 UTC tot 22 om 24 UTC
Zicht: 4000 m
onweer, regen

TAF: FTTJ 211736Z 2118/2224 20006KT 9999 TS FEW030 FEW050CB BECMG 2121/2123 NSW TEMPO 2212/2224 4000 TSRA

Waarnemingen en weersverwachtingen van meer dan 4000 vliegvelden (METAR en TAF).

De beschikbare stations zijn de gele en rode punten op de kaart.

Ga met uw muis naar het station om de naam te zien.

Klik dan om waarnemingen en weersverwachtingen te zien.

kaart wijzigen: klik op de groene knoppen met een zwart kruis om in te zoomen, op de groene knop met een streepje om uit te zoomen of op de groene pijlen voor aangrenzende kaarten.


METAR-TAF: